createdAt,value
2022-12-05T00:02:23.372Z,98001.31
2022-12-05T00:05:25.113Z,98003.03
2022-12-05T00:11:46.135Z,98010.88
2022-12-05T00:14:47.550Z,98007.47
2022-12-05T00:17:49.082Z,98010.94
2022-12-05T00:20:50.477Z,97999.81
2022-12-05T00:23:51.968Z,98003.25
2022-12-05T00:26:53.356Z,97990.44
2022-12-05T00:29:54.884Z,97995.69
2022-12-05T00:32:56.302Z,98000.78
2022-12-05T00:36:09.838Z,97999.97
2022-12-05T00:39:11.623Z,97997.34
2022-12-05T00:42:13.193Z,97993.94
2022-12-05T00:45:14.596Z,97989.69
2022-12-05T00:48:15.942Z,97985.41
2022-12-05T00:51:18.420Z,97996.47
2022-12-05T00:54:19.795Z,97999.06
2022-12-05T00:57:21.156Z,98002.56
2022-12-05T01:00:22.542Z,98014.56
2022-12-05T01:03:23.926Z,98011.06
2022-12-05T01:06:25.453Z,98014.31
2022-12-05T01:09:26.950Z,98016.03
2022-12-05T01:12:28.800Z,98023.03
2022-12-05T01:15:30.162Z,98026.41
2022-12-05T01:18:31.524Z,98016.19
2022-12-05T01:21:32.924Z,98008.50
2022-12-05T01:24:34.264Z,98007.63
2022-12-05T01:27:35.681Z,98014.50
2022-12-05T01:30:37.745Z,98012.88
2022-12-05T01:33:39.182Z,98032.59
2022-12-05T01:36:40.717Z,98030.78
2022-12-05T01:39:42.065Z,98020.56
2022-12-05T01:42:43.744Z,98036.88
2022-12-05T01:45:45.606Z,98035.94
2022-12-05T01:48:47.112Z,98036.81
2022-12-05T01:52:07.992Z,98038.56
2022-12-05T01:55:11.230Z,98053.19
2022-12-05T01:58:12.633Z,98050.63
2022-12-05T02:01:14.089Z,98052.31
2022-12-05T02:04:15.524Z,98046.41
2022-12-05T02:07:16.873Z,98057.47
2022-12-05T02:10:18.428Z,98072.06
2022-12-05T02:13:29.069Z,98066.94
2022-12-05T02:16:40.719Z,98066.16
2022-12-05T02:19:51.402Z,98068.75
2022-12-05T02:22:58.845Z,98078.09
2022-12-05T02:26:06.245Z,98083.09
2022-12-05T02:29:19.927Z,98076.28
2022-12-05T02:32:40.005Z,98080.56
2022-12-05T02:35:41.332Z,98078.06
2022-12-05T02:38:42.630Z,98064.34
2022-12-05T02:41:47.379Z,98059.22
2022-12-05T02:44:56.601Z,98062.59
2022-12-05T02:47:58.013Z,98072.91
2022-12-05T02:50:59.886Z,98063.53
2022-12-05T02:54:02.825Z,98061.84
2022-12-05T02:57:04.201Z,98075.50
2022-12-05T03:00:06.680Z,98075.41
2022-12-05T03:03:12.530Z,98066.03
2022-12-05T03:06:14.468Z,98065.19
2022-12-05T03:09:20.540Z,98072.84
2022-12-05T03:12:26.110Z,98068.53
2022-12-05T03:15:31.922Z,98053.00
2022-12-05T03:18:35.723Z,98077.09
2022-12-05T03:21:57.349Z,98058.25
2022-12-05T03:24:59.320Z,98073.56
2022-12-05T03:28:03.128Z,98061.56
2022-12-05T03:31:06.435Z,98055.66
2022-12-05T03:34:08.360Z,98047.84
2022-12-05T03:37:11.189Z,98055.59
2022-12-05T03:40:31.486Z,98058.13
2022-12-05T03:43:53.146Z,98066.69
2022-12-05T03:47:11.542Z,98065.75
2022-12-05T03:50:39.231Z,98074.41
2022-12-05T03:53:56.612Z,98066.63
2022-12-05T03:57:36.656Z,98067.59
2022-12-05T04:00:39.944Z,98072.72
2022-12-05T04:03:45.341Z,98070.13
2022-12-05T04:06:47.167Z,98074.38
2022-12-05T04:09:58.773Z,98070.06
2022-12-05T04:13:17.626Z,98073.50
2022-12-05T04:16:48.302Z,98077.84
2022-12-05T04:20:17.690Z,98088.16
2022-12-05T04:23:19.034Z,98087.28
2022-12-05T04:26:21.608Z,98083.91
2022-12-05T04:29:25.929Z,98080.44
2022-12-05T04:32:27.727Z,98093.31
2022-12-05T04:35:32.097Z,98093.28
2022-12-05T04:38:46.550Z,98090.72
2022-12-05T04:42:08.196Z,98099.34
2022-12-05T04:45:10.257Z,98094.91
2022-12-05T04:48:12.151Z,98094.06
2022-12-05T04:51:15.121Z,98107.81
2022-12-05T04:54:24.002Z,98107.03
2022-12-05T04:57:29.869Z,98107.09
2022-12-05T05:00:31.295Z,98110.56
2022-12-05T05:03:52.889Z,98119.22
2022-12-05T05:06:54.316Z,98119.22
2022-12-05T05:09:56.078Z,98114.94
2022-12-05T05:12:57.596Z,98118.34
2022-12-05T05:15:59.024Z,98120.88
2022-12-05T05:19:00.393Z,98126.00
2022-12-05T05:22:01.796Z,98125.06
2022-12-05T05:25:03.206Z,98118.28
2022-12-05T05:28:04.661Z,98122.66
2022-12-05T05:31:06.222Z,98118.28
2022-12-05T05:34:09.930Z,98125.06
2022-12-05T05:37:11.493Z,98126.88
2022-12-05T05:40:13.059Z,98125.91
2022-12-05T05:43:14.415Z,98130.22
2022-12-05T05:46:16.381Z,98136.13
2022-12-05T05:49:17.757Z,98147.34
2022-12-05T05:52:19.092Z,98138.78
2022-12-05T05:55:20.462Z,98130.19
2022-12-05T05:58:21.823Z,98141.25
2022-12-05T06:01:23.307Z,98144.75
2022-12-05T06:04:24.717Z,98155.91
2022-12-05T06:07:26.165Z,98166.31
2022-12-05T06:10:27.652Z,98162.88
2022-12-05T06:13:29.076Z,98173.19
2022-12-05T06:16:30.754Z,98167.25
2022-12-05T06:19:32.236Z,98169.88
2022-12-05T06:22:33.604Z,98168.91
2022-12-05T06:25:35.227Z,98179.41
2022-12-05T06:28:37.774Z,98181.19
2022-12-05T06:31:39.324Z,98183.88
2022-12-05T06:34:40.896Z,98194.28
2022-12-05T06:37:45.467Z,98193.56
2022-12-05T06:40:46.919Z,98196.94
2022-12-05T06:43:48.360Z,98197.75
2022-12-05T06:46:49.841Z,98188.41
2022-12-05T06:49:51.247Z,98195.25
2022-12-05T06:52:52.591Z,98207.28
2022-12-05T06:56:00.642Z,98213.34
2022-12-05T06:59:02.090Z,98210.81
2022-12-05T07:02:03.637Z,98203.09
2022-12-05T07:05:05.282Z,98211.75
2022-12-05T07:08:06.749Z,98207.69
2022-12-05T07:11:08.367Z,98210.66
2022-12-05T07:14:19.193Z,98220.28
2022-12-05T07:17:26.296Z,98229.09
2022-12-05T07:20:43.142Z,98230.97
2022-12-05T07:23:50.327Z,98219.34
2022-12-05T07:26:51.963Z,98220.59
2022-12-05T07:29:53.436Z,98227.63
2022-12-05T07:32:54.826Z,98229.31
2022-12-05T07:36:02.837Z,98232.88
2022-12-05T07:39:04.273Z,98232.78
2022-12-05T07:42:05.821Z,98229.50
2022-12-05T07:45:07.656Z,98227.22
2022-12-05T07:48:09.123Z,98229.88
2022-12-05T07:51:10.961Z,98230.03
2022-12-05T07:54:12.452Z,98227.47
2022-12-05T07:57:13.818Z,98227.59
2022-12-05T08:00:15.471Z,98233.72
2022-12-05T08:03:16.839Z,98225.91
2022-12-05T08:06:19.163Z,98231.97
2022-12-05T08:09:20.907Z,98232.91
2022-12-05T08:12:22.298Z,98233.88
2022-12-05T08:15:23.723Z,98242.53
2022-12-05T08:18:27.459Z,98243.41
2022-12-05T08:21:29.347Z,98247.56
2022-12-05T08:24:30.783Z,98246.53
2022-12-05T08:27:32.122Z,98251.69
2022-12-05T08:30:33.684Z,98253.38
2022-12-05T08:33:35.118Z,98245.75
2022-12-05T08:36:36.511Z,98253.59
2022-12-05T08:39:38.937Z,98257.03
2022-12-05T08:42:40.423Z,98269.09
2022-12-05T08:45:41.868Z,98270.84
2022-12-05T08:48:43.327Z,98275.28
2022-12-05T08:51:44.769Z,98276.13
2022-12-05T08:54:46.172Z,98283.06
2022-12-05T08:57:47.531Z,98284.81
2022-12-05T09:00:48.906Z,98302.16
2022-12-05T09:03:50.359Z,98303.91
2022-12-05T09:06:51.840Z,98294.50
2022-12-05T09:09:53.234Z,98291.06
2022-12-05T09:12:54.637Z,98297.25
2022-12-05T09:15:56.176Z,98310.31
2022-12-05T09:18:57.703Z,98314.75
2022-12-05T09:21:59.123Z,98318.28
2022-12-05T09:25:03.628Z,98327.75
2022-12-05T09:28:05.054Z,98331.22
2022-12-05T09:31:13.732Z,98340.78
2022-12-05T09:34:15.483Z,98335.63
2022-12-05T09:37:37.966Z,98342.56
2022-12-05T09:40:43.119Z,98354.72
2022-12-05T09:44:10.922Z,98348.75
2022-12-05T09:47:17.970Z,98342.78
2022-12-05T09:50:28.571Z,98348.84
2022-12-05T09:53:33.667Z,98344.84
2022-12-05T09:56:35.048Z,98350.97
2022-12-05T09:59:36.447Z,98344.03
2022-12-05T10:02:46.177Z,98349.25
2022-12-05T10:05:49.118Z,98341.47
2022-12-05T10:09:10.120Z,98344.09
2022-12-05T10:12:15.623Z,98347.69
2022-12-05T10:15:20.152Z,98342.59
2022-12-05T10:18:21.449Z,98353.13
2022-12-05T10:21:22.930Z,98347.22
2022-12-05T10:24:28.633Z,98357.09
2022-12-05T10:27:40.242Z,98357.69
2022-12-05T10:30:42.092Z,98349.22
2022-12-05T10:33:44.914Z,98370.75
2022-12-05T10:36:57.046Z,98382.03
2022-12-05T10:39:58.441Z,98392.50
2022-12-05T10:42:59.821Z,98426.88
2022-12-05T10:46:01.336Z,98450.25
2022-12-05T10:49:02.805Z,98472.78
2022-12-05T10:52:04.377Z,98503.94
2022-12-05T10:55:06.518Z,98519.47
2022-12-05T10:58:18.120Z,98544.53
2022-12-05T11:01:19.551Z,98568.44
2022-12-05T11:04:24.718Z,98580.13
2022-12-05T11:07:29.188Z,98592.44
2022-12-05T11:10:32.214Z,98591.56
2022-12-05T11:13:33.670Z,98603.56
2022-12-05T11:16:36.278Z,98606.22
2022-12-05T11:19:37.915Z,98618.16
2022-12-05T11:22:40.588Z,98623.34
2022-12-05T11:25:44.599Z,98610.31
2022-12-05T11:28:45.975Z,98615.50
2022-12-05T11:31:50.853Z,98612.91
2022-12-05T11:34:53.853Z,98614.69
2022-12-05T11:38:04.637Z,98614.00
2022-12-05T11:41:18.762Z,98618.47
2022-12-05T11:44:42.821Z,98610.69
2022-12-05T11:48:02.992Z,98629.69
2022-12-05T11:51:23.501Z,98621.63
2022-12-05T11:55:04.534Z,98625.06
2022-12-05T11:58:10.233Z,98621.53
2022-12-05T12:01:18.453Z,98614.56
2022-12-05T12:04:25.839Z,98619.56
2022-12-05T12:07:33.386Z,98622.84
2022-12-05T12:10:56.936Z,98610.88
2022-12-05T12:14:03.836Z,98623.09
2022-12-05T12:17:24.141Z,98630.78
2022-12-05T12:20:35.137Z,98630.72
2022-12-05T12:23:42.880Z,98629.69
2022-12-05T12:27:02.812Z,98628.97
2022-12-05T12:30:06.769Z,98629.78
2022-12-05T12:33:08.107Z,98637.53
2022-12-05T12:36:17.232Z,98635.75
2022-12-05T12:39:31.280Z,98629.59
2022-12-05T12:42:32.608Z,98639.06
2022-12-05T12:45:40.755Z,98639.75
2022-12-05T12:49:00.872Z,98648.50
2022-12-05T12:52:03.034Z,98649.34
2022-12-05T12:55:24.674Z,98655.50
2022-12-05T12:58:45.218Z,98646.88
2022-12-05T13:01:48.230Z,98640.81
2022-12-05T13:04:50.573Z,98644.28
2022-12-05T13:07:53.843Z,98633.16
2022-12-05T13:10:55.301Z,98632.53
2022-12-05T13:13:57.129Z,98629.78
2022-12-05T13:16:58.641Z,98635.03
2022-12-05T13:20:00.352Z,98634.06
2022-12-05T13:23:06.249Z,98644.25
2022-12-05T13:26:10.491Z,98637.28
2022-12-05T13:29:14.903Z,98632.88
2022-12-05T13:32:32.747Z,98631.09
2022-12-05T13:35:56.293Z,98626.63
2022-12-05T13:39:23.556Z,98624.09
2022-12-05T13:42:27.858Z,98620.59
2022-12-05T13:45:29.310Z,98611.00
2022-12-05T13:48:31.127Z,98601.31
2022-12-05T13:51:34.047Z,98603.00
2022-12-05T13:54:35.431Z,98599.59
2022-12-05T13:57:39.860Z,98593.59
2022-12-05T14:00:41.254Z,98585.81
2022-12-05T14:03:54.438Z,98585.00
2022-12-05T14:06:56.351Z,98584.97
2022-12-05T14:09:57.952Z,98573.75
2022-12-05T14:13:00.446Z,98583.16
2022-12-05T14:16:31.584Z,98571.09
2022-12-05T14:19:38.143Z,98560.72
2022-12-05T14:22:55.120Z,98559.81
2022-12-05T14:26:08.577Z,98561.53
2022-12-05T14:29:16.474Z,98546.84
2022-12-05T14:32:25.482Z,98544.28
2022-12-05T14:35:46.362Z,98535.56
2022-12-05T14:38:47.741Z,98534.56
2022-12-05T14:41:55.436Z,98520.75
2022-12-05T14:44:58.044Z,98530.19
2022-12-05T14:48:00.188Z,98523.38
2022-12-05T14:51:01.650Z,98516.53
2022-12-05T14:54:04.720Z,98520.78
2022-12-05T14:57:11.366Z,98519.84
2022-12-05T15:00:17.688Z,98525.84
2022-12-05T15:03:21.301Z,98520.63
2022-12-05T15:06:25.868Z,98522.34
2022-12-05T15:09:38.059Z,98523.16
2022-12-05T15:12:49.879Z,98523.16
2022-12-05T15:16:00.559Z,98514.47
2022-12-05T15:19:04.001Z,98505.69
2022-12-05T15:22:06.477Z,98497.97
2022-12-05T15:25:34.236Z,98496.16
2022-12-05T15:28:35.597Z,98497.91
2022-12-05T15:31:44.443Z,98497.00
2022-12-05T15:34:45.833Z,98491.81
2022-12-05T15:37:47.147Z,98484.91
2022-12-05T15:40:48.592Z,98483.06
2022-12-05T15:43:56.531Z,98483.84
2022-12-05T15:46:57.954Z,98485.53
2022-12-05T15:49:59.507Z,98489.78
2022-12-05T15:53:10.314Z,98487.16
2022-12-05T15:56:11.733Z,98493.97
2022-12-05T15:59:14.994Z,98492.16
2022-12-05T16:02:17.240Z,98495.53
2022-12-05T16:05:41.922Z,98495.41
2022-12-05T16:08:44.083Z,98484.97
2022-12-05T16:11:52.635Z,98478.97
2022-12-05T16:15:00.324Z,98480.63
2022-12-05T16:18:02.743Z,98477.25
2022-12-05T16:21:04.211Z,98478.03
2022-12-05T16:24:15.748Z,98482.13
2022-12-05T16:27:17.919Z,98476.16
2022-12-05T16:30:20.407Z,98478.72
2022-12-05T16:33:21.750Z,98476.09
2022-12-05T16:36:23.163Z,98472.56
2022-12-05T16:39:28.261Z,98469.91
2022-12-05T16:42:29.792Z,98472.47
2022-12-05T16:45:38.472Z,98471.53
2022-12-05T16:48:40.289Z,98475.75
2022-12-05T16:51:42.306Z,98473.16
2022-12-05T16:54:45.982Z,98476.53
2022-12-05T16:57:47.359Z,98473.84
2022-12-05T17:00:49.208Z,98468.66
2022-12-05T17:03:50.932Z,98472.88
2022-12-05T17:06:52.340Z,98483.19
2022-12-05T17:09:53.778Z,98480.50
2022-12-05T17:12:55.128Z,98483.00
2022-12-05T17:15:56.624Z,98475.19
2022-12-05T17:18:58.052Z,98477.75
2022-12-05T17:21:59.478Z,98473.50
2022-12-05T17:25:01.194Z,98467.41
2022-12-05T17:28:02.708Z,98473.44
2022-12-05T17:31:04.278Z,98474.31
2022-12-05T17:34:10.518Z,98481.16
2022-12-05T17:37:11.868Z,98483.66
2022-12-05T17:40:13.671Z,98494.81
2022-12-05T17:43:19.940Z,98481.06
2022-12-05T17:46:24.751Z,98478.56
2022-12-05T17:49:26.457Z,98484.63
2022-12-05T17:52:28.301Z,98488.03
2022-12-05T17:55:29.767Z,98492.25
2022-12-05T17:58:31.177Z,98490.44
2022-12-05T18:01:32.694Z,98493.91
2022-12-05T18:04:34.246Z,98495.66
2022-12-05T18:07:35.874Z,98493.03
2022-12-05T18:10:41.831Z,98495.63
2022-12-05T18:13:43.209Z,98500.00
2022-12-05T18:16:44.705Z,98496.53
2022-12-05T18:19:46.106Z,98502.53
2022-12-05T18:22:48.693Z,98490.44
2022-12-05T18:25:59.834Z,98497.44
2022-12-05T18:29:01.214Z,98500.84
2022-12-05T18:32:02.762Z,98500.88
2022-12-05T18:35:11.310Z,98501.00
2022-12-05T18:38:14.198Z,98502.88
2022-12-05T18:41:15.562Z,98504.53
2022-12-05T18:44:16.899Z,98496.75
2022-12-05T18:47:18.450Z,98505.38
2022-12-05T18:50:19.814Z,98498.50
2022-12-05T18:53:21.187Z,98502.75
2022-12-05T18:56:26.992Z,98494.94
2022-12-05T18:59:30.571Z,98494.91
2022-12-05T19:02:32.026Z,98499.19
2022-12-05T19:05:34.539Z,98500.06
2022-12-05T19:08:35.929Z,98500.00
2022-12-05T19:11:37.399Z,98506.13
2022-12-05T19:14:38.749Z,98509.56
2022-12-05T19:17:40.139Z,98514.50
2022-12-05T19:20:48.562Z,98517.88
2022-12-05T19:23:49.985Z,98510.13
2022-12-05T19:26:51.461Z,98514.41
2022-12-05T19:29:52.845Z,98513.53
2022-12-05T19:32:54.183Z,98510.13
2022-12-05T19:35:55.634Z,98509.28
2022-12-05T19:38:57.174Z,98511.81
2022-12-05T19:41:59.411Z,98512.69
2022-12-05T19:45:06.160Z,98507.53
2022-12-05T19:48:09.640Z,98508.41
2022-12-05T19:51:11.120Z,98505.91
2022-12-05T19:54:12.975Z,98498.16
2022-12-05T19:57:14.344Z,98505.88
2022-12-05T20:00:18.926Z,98509.34
2022-12-05T20:03:20.363Z,98507.63
2022-12-05T20:06:21.897Z,98500.75
2022-12-05T20:09:23.313Z,98505.91
2022-12-05T20:12:24.679Z,98508.47
2022-12-05T20:15:26.047Z,98504.16
2022-12-05T20:18:27.435Z,98508.47
2022-12-05T20:21:29.898Z,98508.41
2022-12-05T20:24:31.333Z,98514.41
2022-12-05T20:27:34.102Z,98506.69
2022-12-05T20:30:35.621Z,98509.34
2022-12-05T20:33:37.136Z,98499.88
2022-12-05T20:36:38.578Z,98505.91
2022-12-05T20:39:39.956Z,98505.81
2022-12-05T20:42:46.424Z,98496.38
2022-12-05T20:45:48.319Z,98499.78
2022-12-05T20:48:50.279Z,98496.38
2022-12-05T20:51:51.717Z,98495.59
2022-12-05T20:54:53.096Z,98495.59
2022-12-05T20:57:54.509Z,98493.84
2022-12-05T21:00:59.638Z,98502.38
2022-12-05T21:04:01.212Z,98504.09
2022-12-05T21:07:02.600Z,98500.66
2022-12-05T21:10:08.115Z,98499.00
2022-12-05T21:13:09.953Z,98493.88
2022-12-05T21:16:12.258Z,98495.66
2022-12-05T21:19:13.723Z,98495.56
2022-12-05T21:22:15.115Z,98488.59
2022-12-05T21:25:16.524Z,98486.91
2022-12-05T21:28:17.895Z,98494.63
2022-12-05T21:31:20.371Z,98493.78
2022-12-05T21:34:21.832Z,98490.31
2022-12-05T21:37:23.220Z,98494.53
2022-12-05T21:40:24.621Z,98488.47
2022-12-05T21:43:25.993Z,98488.41
2022-12-05T21:46:27.546Z,98489.34
2022-12-05T21:49:28.959Z,98496.22
2022-12-05T21:52:30.354Z,98496.16
2022-12-05T21:55:31.714Z,98497.00
2022-12-05T21:58:35.051Z,98486.66
2022-12-05T22:01:38.326Z,98495.19
2022-12-05T22:04:39.782Z,98486.53
2022-12-05T22:07:41.195Z,98486.53
2022-12-05T22:10:42.609Z,98483.06
2022-12-05T22:13:44.557Z,98483.06
2022-12-05T22:16:46.143Z,98486.47
2022-12-05T22:19:47.565Z,98482.16
2022-12-05T22:22:48.959Z,98488.19
2022-12-05T22:26:01.755Z,98495.03
2022-12-05T22:29:03.211Z,98488.94
2022-12-05T22:32:04.622Z,98489.78
2022-12-05T22:35:06.070Z,98488.84
2022-12-05T22:38:07.461Z,98489.63
2022-12-05T22:41:09.905Z,98484.44
2022-12-05T22:44:11.271Z,98488.84
2022-12-05T22:47:12.652Z,98489.72
2022-12-05T22:50:14.116Z,98486.28
2022-12-05T22:53:16.076Z,98482.84
2022-12-05T22:56:17.688Z,98480.25
2022-12-05T22:59:19.053Z,98478.56
2022-12-05T23:02:20.609Z,98472.59
2022-12-05T23:05:22.226Z,98475.06
2022-12-05T23:08:23.570Z,98469.78
2022-12-05T23:11:25.125Z,98471.53
2022-12-05T23:14:26.573Z,98468.09
2022-12-05T23:17:27.987Z,98467.16
2022-12-05T23:20:29.435Z,98467.81
2022-12-05T23:23:30.818Z,98463.50
2022-12-05T23:26:33.801Z,98458.44
2022-12-05T23:29:35.407Z,98455.81
2022-12-05T23:32:37.161Z,98454.91
2022-12-05T23:35:38.577Z,98463.59
2022-12-05T23:38:40.432Z,98464.38
2022-12-05T23:41:41.950Z,98461.75
2022-12-05T23:44:43.617Z,98460.06
2022-12-05T23:47:44.994Z,98457.47
2022-12-05T23:50:55.989Z,98450.66
2022-12-05T23:53:58.258Z,98456.63
2022-12-05T23:56:59.648Z,98455.75
